createdAt,value
2022-09-28T00:02:01.730Z,97918.41
2022-09-28T00:04:28.370Z,97921.75
2022-09-28T00:06:54.922Z,97923.44
2022-09-28T00:09:21.491Z,97923.56
2022-09-28T00:11:48.069Z,97931.56
2022-09-28T00:14:15.481Z,97930.72
2022-09-28T00:16:44.097Z,97929.28
2022-09-28T00:19:12.266Z,97926.19
2022-09-28T00:21:40.949Z,97935.63
2022-09-28T00:24:13.113Z,97934.78
2022-09-28T00:26:41.119Z,97941.63
2022-09-28T00:29:12.997Z,97956.66
2022-09-28T00:31:39.678Z,97952.34
2022-09-28T00:34:06.364Z,97948.16
2022-09-28T00:36:33.748Z,97946.88
2022-09-28T00:39:04.803Z,97946.63
2022-09-28T00:41:31.457Z,97917.88
2022-09-28T00:44:22.921Z,97935.16
2022-09-28T00:47:00.177Z,97939.44
2022-09-28T00:49:43.492Z,97940.28
2022-09-28T00:52:13.801Z,97945.28
2022-09-28T00:54:42.299Z,97934.69
2022-09-28T00:57:09.367Z,97941.25
2022-09-28T00:59:35.948Z,97940.16
2022-09-28T01:02:02.854Z,97932.75
2022-09-28T01:04:30.303Z,97926.44
2022-09-28T01:06:58.075Z,97937.28
2022-09-28T01:09:26.201Z,97936.47
2022-09-28T01:11:52.926Z,97933.97
2022-09-28T01:14:20.718Z,97928.00
2022-09-28T01:16:59.272Z,97943.88
2022-09-28T01:19:37.945Z,97935.25
2022-09-28T01:22:19.672Z,97943.25
2022-09-28T01:24:48.422Z,97950.66
2022-09-28T01:27:21.093Z,97948.28
2022-09-28T01:29:47.624Z,97948.50
2022-09-28T01:32:32.898Z,97950.09
2022-09-28T01:35:10.366Z,97957.47
2022-09-28T01:37:52.220Z,97954.75
2022-09-28T01:40:21.000Z,97959.88
2022-09-28T01:42:51.312Z,97956.50
2022-09-28T01:45:25.000Z,97944.34
2022-09-28T01:47:55.764Z,97949.94
2022-09-28T01:50:24.371Z,97939.69
2022-09-28T01:53:04.275Z,97937.44
2022-09-28T01:55:34.219Z,97948.91
2022-09-28T01:58:10.201Z,97949.03
2022-09-28T02:00:39.471Z,97952.13
2022-09-28T02:03:10.107Z,97960.69
2022-09-28T02:05:38.189Z,97961.41
2022-09-28T02:08:10.867Z,97955.31
2022-09-28T02:10:44.607Z,97957.94
2022-09-28T02:13:16.261Z,97962.84
2022-09-28T02:15:49.583Z,97961.75
2022-09-28T02:18:16.357Z,97962.97
2022-09-28T02:20:48.711Z,97935.78
2022-09-28T02:23:15.522Z,97962.97
2022-09-28T02:25:49.892Z,97962.72
2022-09-28T02:28:16.599Z,97945.53
2022-09-28T02:30:44.519Z,97939.13
2022-09-28T02:33:13.153Z,97960.59
2022-09-28T02:35:41.393Z,97942.69
2022-09-28T02:38:08.278Z,97956.16
2022-09-28T02:40:36.832Z,97951.75
2022-09-28T02:43:15.617Z,97951.66
2022-09-28T02:46:08.679Z,97958.31
2022-09-28T02:48:43.729Z,97962.72
2022-09-28T02:51:35.976Z,97970.63
2022-09-28T02:54:21.910Z,97968.81
2022-09-28T02:56:54.543Z,97975.97
2022-09-28T02:59:37.297Z,97975.88
2022-09-28T03:02:11.130Z,97969.78
2022-09-28T03:04:47.388Z,97967.00
2022-09-28T03:07:25.720Z,97976.56
2022-09-28T03:10:01.578Z,97964.66
2022-09-28T03:12:31.543Z,97978.13
2022-09-28T03:15:10.710Z,97974.88
2022-09-28T03:17:37.508Z,97958.44
2022-09-28T03:20:05.217Z,97976.09
2022-09-28T03:22:31.787Z,97967.00
2022-09-28T03:24:58.450Z,97985.78
2022-09-28T03:27:25.079Z,97978.13
2022-09-28T03:29:51.670Z,97989.34
2022-09-28T03:32:18.256Z,97986.00
2022-09-28T03:34:44.826Z,97998.03
2022-09-28T03:37:11.428Z,97994.47
2022-09-28T03:39:37.962Z,97989.59
2022-09-28T03:42:04.585Z,97994.72
2022-09-28T03:44:31.277Z,98000.91
2022-09-28T03:46:57.877Z,97985.66
2022-09-28T03:49:24.407Z,97995.41
2022-09-28T03:51:51.058Z,97994.25
2022-09-28T03:54:17.715Z,98005.94
2022-09-28T03:56:44.278Z,97994.38
2022-09-28T03:59:11.326Z,97993.53
2022-09-28T04:01:38.148Z,98003.06
2022-09-28T04:04:04.808Z,98002.47
2022-09-28T04:06:31.394Z,98007.84
2022-09-28T04:08:58.086Z,98015.38
2022-09-28T04:11:24.688Z,98008.44
2022-09-28T04:13:51.276Z,98005.81
2022-09-28T04:16:18.989Z,98011.91
2022-09-28T04:18:45.648Z,98010.47
2022-09-28T04:21:13.293Z,98002.00
2022-09-28T04:23:40.390Z,98004.97
2022-09-28T04:26:16.634Z,98009.16
2022-09-28T04:29:06.297Z,98008.44
2022-09-28T04:31:45.854Z,98004.97
2022-09-28T04:34:24.709Z,98001.53
2022-09-28T04:36:51.301Z,97990.91
2022-09-28T04:39:19.472Z,97972.66
2022-09-28T04:41:48.345Z,97983.00
2022-09-28T04:44:15.058Z,97976.44
2022-09-28T04:46:41.600Z,97973.47
2022-09-28T04:49:10.084Z,97973.56
2022-09-28T04:51:36.664Z,97975.97
2022-09-28T04:54:03.345Z,97970.09
2022-09-28T04:56:29.904Z,97964.81
2022-09-28T04:58:56.441Z,97963.16
2022-09-28T05:01:24.353Z,97967.91
2022-09-28T05:03:51.208Z,97947.25
2022-09-28T05:06:17.993Z,97954.69
2022-09-28T05:08:46.942Z,97958.84
2022-09-28T05:11:14.309Z,97963.94
2022-09-28T05:13:45.538Z,97951.94
2022-09-28T05:16:16.427Z,97942.84
2022-09-28T05:18:43.060Z,97948.38
2022-09-28T05:21:14.208Z,97959.34
2022-09-28T05:23:43.814Z,97948.00
2022-09-28T05:26:10.534Z,97940.72
2022-09-28T05:28:37.145Z,97932.03
2022-09-28T05:31:05.008Z,97924.06
2022-09-28T05:33:32.643Z,97913.81
2022-09-28T05:36:05.602Z,97929.84
2022-09-28T05:38:32.273Z,97920.28
2022-09-28T05:41:02.102Z,97936.06
2022-09-28T05:43:32.250Z,97937.81
2022-09-28T05:46:02.189Z,97951.06
2022-09-28T05:48:43.916Z,97942.72
2022-09-28T05:51:10.493Z,97951.81
2022-09-28T05:53:37.058Z,97957.41
2022-09-28T05:56:03.724Z,97954.31
2022-09-28T05:58:30.304Z,97951.19
2022-09-28T06:00:57.415Z,97962.75
2022-09-28T06:03:24.578Z,97956.28
2022-09-28T06:05:51.565Z,97964.88
2022-09-28T06:08:18.159Z,97962.22
2022-09-28T06:10:44.740Z,97962.91
2022-09-28T06:13:12.120Z,97976.00
2022-09-28T06:15:39.213Z,97965.03
2022-09-28T06:18:07.907Z,97975.25
2022-09-28T06:20:36.236Z,97976.81
2022-09-28T06:23:03.183Z,97972.44
2022-09-28T06:25:29.818Z,97970.44
2022-09-28T06:28:05.389Z,97962.94
2022-09-28T06:30:34.416Z,97966.28
2022-09-28T06:33:02.044Z,97951.22
2022-09-28T06:35:30.465Z,97963.66
2022-09-28T06:37:58.311Z,97947.88
2022-09-28T06:40:25.158Z,97940.94
2022-09-28T06:43:10.930Z,97949.88
2022-09-28T06:45:38.472Z,97953.34
2022-09-28T06:48:05.603Z,97945.38
2022-09-28T06:50:34.340Z,97946.38
2022-09-28T06:53:01.211Z,97944.00
2022-09-28T06:55:28.257Z,97945.97
2022-09-28T06:58:01.935Z,97945.75
2022-09-28T07:00:31.253Z,97952.28
2022-09-28T07:02:57.981Z,97953.00
2022-09-28T07:05:27.404Z,97946.91
2022-09-28T07:07:57.936Z,97956.47
2022-09-28T07:10:25.796Z,97938.31
2022-09-28T07:12:52.502Z,97931.78
2022-09-28T07:15:19.567Z,97920.09
2022-09-28T07:17:58.337Z,97927.06
2022-09-28T07:20:27.617Z,97924.03
2022-09-28T07:23:16.006Z,97921.44
2022-09-28T07:25:48.062Z,97912.19
2022-09-28T07:28:15.633Z,97899.75
2022-09-28T07:30:44.262Z,97906.19
2022-09-28T07:33:14.617Z,97907.25
2022-09-28T07:35:44.652Z,97900.81
2022-09-28T07:38:11.281Z,97892.53
2022-09-28T07:40:56.811Z,97897.25
2022-09-28T07:43:26.497Z,97886.81
2022-09-28T07:45:56.892Z,97892.56
2022-09-28T07:48:23.791Z,97897.25
2022-09-28T07:50:57.373Z,97911.03
2022-09-28T07:53:25.488Z,97902.66
2022-09-28T07:55:56.717Z,97912.00
2022-09-28T07:58:23.384Z,97912.25
2022-09-28T08:00:56.760Z,97902.94
2022-09-28T08:03:30.233Z,97900.00
2022-09-28T08:05:59.653Z,97910.69
2022-09-28T08:08:27.026Z,97896.31
2022-09-28T08:10:53.657Z,97899.50
2022-09-28T08:13:22.245Z,97883.00
2022-09-28T08:15:51.909Z,97879.28
2022-09-28T08:18:18.786Z,97888.81
2022-09-28T08:21:04.060Z,97885.50
2022-09-28T08:23:30.806Z,97874.56
2022-09-28T08:25:58.140Z,97892.19
2022-09-28T08:28:25.136Z,97905.19
2022-09-28T08:30:51.862Z,97894.69
2022-09-28T08:33:20.395Z,97895.53
2022-09-28T08:35:47.696Z,97894.41
2022-09-28T08:38:14.668Z,97881.03
2022-09-28T08:41:03.957Z,97880.50
2022-09-28T08:43:41.597Z,97873.59
2022-09-28T08:46:09.743Z,97875.91
2022-09-28T08:48:57.099Z,97868.84
2022-09-28T08:51:44.005Z,97879.13
2022-09-28T08:54:27.057Z,97892.53
2022-09-28T08:57:18.722Z,97872.00
2022-09-28T08:59:56.126Z,97877.94
2022-09-28T09:02:34.421Z,97862.50
2022-09-28T09:05:05.018Z,97881.84
2022-09-28T09:07:49.523Z,97884.44
2022-09-28T09:10:28.664Z,97885.97
2022-09-28T09:13:07.334Z,97881.66
2022-09-28T09:15:40.910Z,97891.44
2022-09-28T09:18:23.779Z,97894.38
2022-09-28T09:21:10.159Z,97884.44
2022-09-28T09:23:56.785Z,97874.25
2022-09-28T09:26:39.126Z,97874.69
2022-09-28T09:29:37.651Z,97865.19
2022-09-28T09:32:19.239Z,97866.50
2022-09-28T09:35:06.865Z,97870.16
2022-09-28T09:38:07.086Z,97858.63
2022-09-28T09:40:42.110Z,97868.16
2022-09-28T09:43:13.893Z,97875.31
2022-09-28T09:45:49.301Z,97877.88
2022-09-28T09:48:15.869Z,97883.59
2022-09-28T09:50:57.893Z,97881.50
2022-09-28T09:53:28.917Z,97875.75
2022-09-28T09:56:04.214Z,97885.38
2022-09-28T09:58:34.461Z,97875.13
2022-09-28T10:01:17.408Z,97885.50
2022-09-28T10:03:46.209Z,97872.09
2022-09-28T10:06:16.994Z,97885.72
2022-09-28T10:08:52.096Z,97897.53
2022-09-28T10:11:37.433Z,97896.63
2022-09-28T10:14:04.590Z,97889.66
2022-09-28T10:16:33.195Z,97882.03
2022-09-28T10:19:00.543Z,97885.75
2022-09-28T10:21:27.890Z,97898.53
2022-09-28T10:23:57.643Z,97896.75
2022-09-28T10:26:28.443Z,97889.44
2022-09-28T10:29:05.005Z,97896.28
2022-09-28T10:31:40.599Z,97887.09
2022-09-28T10:34:10.066Z,97884.59
2022-09-28T10:37:05.451Z,97882.31
2022-09-28T10:39:32.060Z,97885.00
2022-09-28T10:42:04.338Z,97898.28
2022-09-28T10:44:41.967Z,97898.03
2022-09-28T10:47:15.191Z,97892.75
2022-09-28T10:49:47.244Z,97881.94
2022-09-28T10:52:41.804Z,97891.84
2022-09-28T10:55:32.507Z,97883.00
2022-09-28T10:58:30.335Z,97884.75
2022-09-28T11:01:06.258Z,97881.41
2022-09-28T11:03:33.097Z,97884.66
2022-09-28T11:06:07.473Z,97887.09
2022-09-28T11:08:42.844Z,97898.72
2022-09-28T11:11:15.090Z,97887.84
2022-09-28T11:13:46.070Z,97905.16
2022-09-28T11:16:29.853Z,97889.88
2022-09-28T11:18:57.732Z,97895.69
2022-09-28T11:21:27.099Z,97897.59
2022-09-28T11:24:27.389Z,97900.59
2022-09-28T11:27:00.200Z,97901.72
2022-09-28T11:29:44.210Z,97893.72
2022-09-28T11:32:15.489Z,97896.69
2022-09-28T11:34:59.936Z,97891.69
2022-09-28T11:37:36.109Z,97891.78
2022-09-28T11:40:21.433Z,97897.38
2022-09-28T11:42:56.821Z,97892.97
2022-09-28T11:45:26.196Z,97900.13
2022-09-28T11:47:57.811Z,97904.28
2022-09-28T11:50:48.108Z,97906.00
2022-09-28T11:53:29.333Z,97931.06
2022-09-28T11:56:30.273Z,97916.13
2022-09-28T11:59:14.350Z,97912.72
2022-09-28T12:01:45.514Z,97904.63
2022-09-28T12:04:23.102Z,97897.06
2022-09-28T12:07:19.109Z,97895.78
2022-09-28T12:10:00.393Z,97891.72
2022-09-28T12:12:52.465Z,97892.25
2022-09-28T12:15:23.028Z,97906.50
2022-09-28T12:18:07.372Z,97865.47
2022-09-28T12:20:39.341Z,97875.75
2022-09-28T12:23:11.849Z,97889.50
2022-09-28T12:25:48.447Z,97896.00
2022-09-28T12:28:22.651Z,97891.47
2022-09-28T12:30:51.881Z,97920.66
2022-09-28T12:33:18.524Z,97916.03
2022-09-28T12:36:07.900Z,97932.03
2022-09-28T12:39:19.062Z,97966.28
2022-09-28T12:42:03.534Z,97982.72
2022-09-28T12:44:32.786Z,97988.66
2022-09-28T12:47:23.846Z,97995.59
2022-09-28T12:50:38.044Z,97995.72
2022-09-28T12:52:52.528Z,98016.00
2022-09-28T12:55:41.574Z,98017.09
2022-09-28T12:58:50.785Z,98011.81
2022-09-28T13:01:51.252Z,98010.59
2022-09-28T13:04:27.361Z,98009.44
2022-09-28T13:07:42.883Z,98014.41
2022-09-28T13:10:22.610Z,98001.25
2022-09-28T13:13:26.976Z,98000.00
2022-09-28T13:16:00.555Z,98003.59
2022-09-28T13:18:48.929Z,98003.75
2022-09-28T13:21:41.853Z,97997.78
2022-09-28T13:24:31.050Z,97993.59
2022-09-28T13:27:04.609Z,97994.00
2022-09-28T13:29:32.132Z,97990.81
2022-09-28T13:32:00.113Z,98005.56
2022-09-28T13:34:32.900Z,97995.56
2022-09-28T13:37:14.886Z,97991.72
2022-09-28T13:39:44.527Z,97979.34
2022-09-28T13:42:40.713Z,97976.00
2022-09-28T13:45:22.506Z,97977.97
2022-09-28T13:48:14.585Z,97965.53
2022-09-28T13:50:56.543Z,97947.38
2022-09-28T13:53:45.303Z,97928.84
2022-09-28T13:56:38.119Z,97912.38
2022-09-28T13:59:28.967Z,97915.59
2022-09-28T14:02:40.214Z,97934.00
2022-09-28T14:05:52.361Z,97924.75
2022-09-28T14:08:28.389Z,97904.69
2022-09-28T14:11:25.358Z,97915.59
2022-09-28T14:13:59.994Z,97905.28
2022-09-28T14:16:31.225Z,97917.09
2022-09-28T14:19:02.911Z,97915.03
2022-09-28T14:21:58.196Z,97920.66
2022-09-28T14:25:07.113Z,97921.19
2022-09-28T14:27:41.992Z,97928.03
2022-09-28T14:30:11.532Z,97940.44
2022-09-28T14:32:40.026Z,97931.28
2022-09-28T14:35:18.597Z,97950.63
2022-09-28T14:38:07.104Z,97957.81
2022-09-28T14:41:15.345Z,97988.66
2022-09-28T14:43:44.964Z,97986.56
2022-09-28T14:46:11.596Z,97989.47
2022-09-28T14:48:50.988Z,97992.94
2022-09-28T14:51:26.821Z,97993.06
2022-09-28T14:53:54.958Z,98000.00
2022-09-28T14:56:22.255Z,97999.69
2022-09-28T14:58:54.122Z,97993.72
2022-09-28T15:01:24.609Z,98012.97
2022-09-28T15:04:00.429Z,98015.22
2022-09-28T15:06:29.147Z,98011.50
2022-09-28T15:08:55.755Z,98014.78
2022-09-28T15:11:24.439Z,98026.03
2022-09-28T15:13:58.216Z,98020.88
2022-09-28T15:16:24.832Z,98023.94
2022-09-28T15:19:06.733Z,98030.38
2022-09-28T15:21:43.267Z,98033.69
2022-09-28T15:24:31.417Z,98027.47
2022-09-28T15:26:59.322Z,98037.72
2022-09-28T15:29:31.089Z,98040.22
2022-09-28T15:31:58.593Z,98039.97
2022-09-28T15:34:48.403Z,98041.41
2022-09-28T15:37:17.264Z,98051.44
2022-09-28T15:39:48.322Z,98045.88
2022-09-28T15:42:16.693Z,98056.84
2022-09-28T15:44:45.977Z,98063.06
2022-09-28T15:47:14.727Z,98073.19
2022-09-28T15:50:02.423Z,98065.09
2022-09-28T15:52:38.706Z,98084.09
2022-09-28T15:55:26.417Z,98079.34
2022-09-28T15:58:15.181Z,98087.59
2022-09-28T16:00:42.633Z,98096.59
2022-09-28T16:03:09.210Z,98094.38
2022-09-28T16:05:43.547Z,98092.88
2022-09-28T16:08:42.035Z,98099.34
2022-09-28T16:11:21.820Z,98103.75
2022-09-28T16:13:57.437Z,98103.16
2022-09-28T16:16:52.226Z,98112.06
2022-09-28T16:19:23.547Z,98101.19
2022-09-28T16:21:52.110Z,98114.69
2022-09-28T16:24:22.084Z,98111.47
2022-09-28T16:26:49.389Z,98107.47
2022-09-28T16:29:27.332Z,98106.06
2022-09-28T16:31:54.074Z,98110.69
2022-09-28T16:34:24.852Z,98109.03
2022-09-28T16:36:51.739Z,98106.78
2022-09-28T16:39:19.040Z,98109.53
2022-09-28T16:41:49.112Z,98119.69
2022-09-28T16:44:19.718Z,98110.94
2022-09-28T16:46:46.651Z,98125.66
2022-09-28T16:49:18.772Z,98126.19
2022-09-28T16:51:47.207Z,98121.16
2022-09-28T16:54:35.128Z,98130.50
2022-09-28T16:57:02.336Z,98119.78
2022-09-28T16:59:29.152Z,98130.88
2022-09-28T17:01:59.095Z,98134.09
2022-09-28T17:04:26.625Z,98136.84
2022-09-28T17:06:54.429Z,98136.47
2022-09-28T17:09:24.125Z,98141.84
2022-09-28T17:11:56.986Z,98138.22
2022-09-28T17:14:24.270Z,98135.84
2022-09-28T17:17:13.766Z,98148.28
2022-09-28T17:19:40.669Z,98129.19
2022-09-28T17:22:09.067Z,98110.25
2022-09-28T17:24:35.695Z,98112.31
2022-09-28T17:27:03.425Z,98108.16
2022-09-28T17:29:30.296Z,98090.75
2022-09-28T17:31:56.871Z,98079.13
2022-09-28T17:34:23.796Z,98087.78
2022-09-28T17:36:50.504Z,98109.91
2022-09-28T17:39:19.158Z,98105.66
2022-09-28T17:41:45.872Z,98110.84
2022-09-28T17:44:16.062Z,98112.63
2022-09-28T17:46:49.177Z,98130.69
2022-09-28T17:49:16.740Z,98126.25
2022-09-28T17:51:43.403Z,98127.72
2022-09-28T17:54:10.356Z,98124.03
2022-09-28T17:56:37.120Z,98131.31
2022-09-28T17:59:06.638Z,98147.59
2022-09-28T18:01:34.676Z,98161.56
2022-09-28T18:04:05.776Z,98166.22
2022-09-28T18:06:37.310Z,98174.34
2022-09-28T18:09:05.343Z,98173.25
2022-09-28T18:11:32.960Z,98175.66
2022-09-28T18:13:59.646Z,98173.63
2022-09-28T18:16:28.030Z,98173.03
2022-09-28T18:18:54.930Z,98184.97
2022-09-28T18:21:21.551Z,98202.41
2022-09-28T18:23:48.215Z,98205.03
2022-09-28T18:26:26.640Z,98202.22
2022-09-28T18:28:56.279Z,98211.91
2022-09-28T18:31:23.033Z,98208.03
2022-09-28T18:33:49.942Z,98219.06
2022-09-28T18:36:16.612Z,98223.66
2022-09-28T18:38:43.162Z,98229.13
2022-09-28T18:41:15.786Z,98233.78
2022-09-28T18:43:48.970Z,98219.84
2022-09-28T18:46:15.890Z,98222.44
2022-09-28T18:48:44.041Z,98255.81
2022-09-28T18:51:11.961Z,98245.56
2022-09-28T18:53:41.766Z,98262.50
2022-09-28T18:56:10.145Z,98259.69
2022-09-28T18:58:37.860Z,98264.34
2022-09-28T19:01:28.359Z,98268.09
2022-09-28T19:03:55.116Z,98270.75
2022-09-28T19:06:21.730Z,98265.94
2022-09-28T19:08:52.829Z,98287.00
2022-09-28T19:11:19.567Z,98275.50
2022-09-28T19:13:46.122Z,98280.94
2022-09-28T19:16:14.636Z,98286.31
2022-09-28T19:18:41.655Z,98283.16
2022-09-28T19:21:11.533Z,98282.94
2022-09-28T19:23:39.215Z,98298.97
2022-09-28T19:26:08.566Z,98295.38
2022-09-28T19:28:35.595Z,98288.88
2022-09-28T19:31:04.020Z,98310.28
2022-09-28T19:33:30.761Z,98324.41
2022-09-28T19:35:59.055Z,98288.47
2022-09-28T19:38:29.378Z,98326.59
2022-09-28T19:40:56.463Z,98329.31
2022-09-28T19:43:23.177Z,98324.63
2022-09-28T19:45:52.466Z,98337.06
2022-09-28T19:48:21.908Z,98342.81
2022-09-28T19:51:15.663Z,98332.75
2022-09-28T19:53:42.271Z,98341.00
2022-09-28T19:56:08.883Z,98347.09
2022-09-28T19:58:36.720Z,98343.84
2022-09-28T20:01:08.706Z,98346.13
2022-09-28T20:03:35.414Z,98353.09
2022-09-28T20:06:02.448Z,98359.09
2022-09-28T20:08:32.335Z,98362.03
2022-09-28T20:10:59.986Z,98361.38
2022-09-28T20:13:31.690Z,98363.91
2022-09-28T20:16:10.242Z,98372.06
2022-09-28T20:18:38.794Z,98373.81
2022-09-28T20:21:07.436Z,98370.66
2022-09-28T20:23:38.875Z,98373.38
2022-09-28T20:26:06.865Z,98366.56
2022-09-28T20:28:33.426Z,98376.94
2022-09-28T20:31:07.545Z,98374.72
2022-09-28T20:33:35.459Z,98370.50
2022-09-28T20:36:07.067Z,98385.28
2022-09-28T20:38:34.220Z,98375.94
2022-09-28T20:41:01.757Z,98377.72
2022-09-28T20:43:32.146Z,98385.75
2022-09-28T20:45:58.996Z,98389.50
2022-09-28T20:48:26.204Z,98389.91
2022-09-28T20:51:00.861Z,98393.34
2022-09-28T20:53:27.522Z,98395.59
2022-09-28T20:56:05.236Z,98388.03
2022-09-28T20:58:31.896Z,98387.59
2022-09-28T21:01:11.273Z,98407.47
2022-09-28T21:03:38.391Z,98413.94
2022-09-28T21:06:10.036Z,98409.97
2022-09-28T21:08:38.635Z,98413.47
2022-09-28T21:11:06.574Z,98400.28
2022-09-28T21:13:33.598Z,98416.25
2022-09-28T21:16:04.176Z,98412.69
2022-09-28T21:18:30.879Z,98402.22
2022-09-28T21:20:57.532Z,98395.88
2022-09-28T21:23:25.022Z,98411.59
2022-09-28T21:26:03.300Z,98409.81
2022-09-28T21:28:32.059Z,98410.06
2022-09-28T21:31:00.307Z,98427.00
2022-09-28T21:33:27.111Z,98433.50
2022-09-28T21:35:53.895Z,98427.00
2022-09-28T21:38:20.455Z,98439.09
2022-09-28T21:40:47.192Z,98425.06
2022-09-28T21:43:13.911Z,98431.91
2022-09-28T21:45:41.824Z,98444.13
2022-09-28T21:48:08.496Z,98449.50
2022-09-28T21:50:35.184Z,98453.81
2022-09-28T21:53:03.208Z,98456.09
2022-09-28T21:55:29.845Z,98463.50
2022-09-28T21:57:56.389Z,98456.59
2022-09-28T22:00:26.229Z,98474.38
2022-09-28T22:02:53.003Z,98475.06
2022-09-28T22:05:19.746Z,98469.31
2022-09-28T22:07:48.873Z,98477.84
2022-09-28T22:10:15.473Z,98493.31
2022-09-28T22:12:42.216Z,98493.88
2022-09-28T22:15:09.948Z,98489.66
2022-09-28T22:17:36.552Z,98506.66
2022-09-28T22:20:03.862Z,98513.56
2022-09-28T22:22:30.519Z,98488.72
2022-09-28T22:24:57.101Z,98516.88
2022-09-28T22:27:24.105Z,98513.56
2022-09-28T22:29:51.169Z,98528.94
2022-09-28T22:32:17.852Z,98546.28
2022-09-28T22:34:44.523Z,98527.22
2022-09-28T22:37:11.100Z,98544.00
2022-09-28T22:39:38.069Z,98552.94
2022-09-28T22:42:04.881Z,98564.13
2022-09-28T22:44:35.691Z,98568.22
2022-09-28T22:47:02.660Z,98568.81
2022-09-28T22:49:29.411Z,98558.91
2022-09-28T22:51:56.117Z,98564.50
2022-09-28T22:54:22.711Z,98572.69
2022-09-28T22:56:49.433Z,98564.56
2022-09-28T22:59:15.974Z,98580.69
2022-09-28T23:01:42.585Z,98572.47
2022-09-28T23:04:09.281Z,98567.56
2022-09-28T23:06:35.893Z,98580.97
2022-09-28T23:09:02.656Z,98582.53
2022-09-28T23:11:29.776Z,98581.63
2022-09-28T23:13:58.196Z,98584.16
2022-09-28T23:16:26.855Z,98579.84
2022-09-28T23:18:55.131Z,98588.06
2022-09-28T23:21:24.526Z,98579.09
2022-09-28T23:23:53.519Z,98581.66
2022-09-28T23:26:25.494Z,98587.81
2022-09-28T23:28:53.042Z,98586.53
2022-09-28T23:31:27.985Z,98586.09
2022-09-28T23:34:03.436Z,98589.06
2022-09-28T23:36:29.961Z,98592.22
2022-09-28T23:38:56.709Z,98597.94
2022-09-28T23:41:23.354Z,98590.34
2022-09-28T23:43:49.937Z,98605.47
2022-09-28T23:46:20.731Z,98605.16
2022-09-28T23:48:48.558Z,98606.31
2022-09-28T23:51:15.182Z,98601.16
2022-09-28T23:53:41.743Z,98601.00
2022-09-28T23:56:08.281Z,98599.81
2022-09-28T23:58:34.910Z,98604.84
